createdAt,value
2018-01-29T00:02:16.167Z,9.30
2018-01-29T00:04:42.156Z,9.30
2018-01-29T00:07:08.153Z,9.30
2018-01-29T00:09:34.131Z,9.30
2018-01-29T00:12:00.096Z,9.30
2018-01-29T00:14:26.079Z,9.30
2018-01-29T00:16:52.075Z,9.30
2018-01-29T00:19:18.074Z,9.20
2018-01-29T00:21:44.070Z,9.30
2018-01-29T00:24:10.106Z,9.20
2018-01-29T00:26:36.115Z,9.10
2018-01-29T00:29:02.169Z,9.20
2018-01-29T00:31:28.160Z,9.20
2018-01-29T00:33:54.161Z,9.30
2018-01-29T00:36:20.231Z,9.30
2018-01-29T00:38:46.302Z,9.40
2018-01-29T00:41:12.272Z,9.40
2018-01-29T00:43:38.269Z,9.40
2018-01-29T00:46:04.247Z,9.40
2018-01-29T00:48:30.265Z,9.30
2018-01-29T00:50:56.252Z,9.30
2018-01-29T00:53:22.231Z,9.30
2018-01-29T00:55:48.232Z,9.30
2018-01-29T00:58:14.997Z,9.30
2018-01-29T01:00:41.713Z,9.20
2018-01-29T01:03:07.716Z,9.20
2018-01-29T01:05:33.681Z,9.20
2018-01-29T01:07:59.654Z,9.30
2018-01-29T01:10:26.371Z,9.30
2018-01-29T01:12:52.387Z,9.40
2018-01-29T01:15:18.392Z,9.30
2018-01-29T01:17:44.392Z,9.30
2018-01-29T01:20:10.368Z,9.30
2018-01-29T01:22:36.340Z,9.40
2018-01-29T01:25:02.327Z,9.40
2018-01-29T01:27:28.291Z,9.30
2018-01-29T01:29:54.277Z,9.30
2018-01-29T01:32:21.019Z,9.30
2018-01-29T01:34:47.039Z,9.30
2018-01-29T01:37:13.006Z,9.30
2018-01-29T01:39:39.752Z,9.40
2018-01-29T01:42:05.728Z,9.40
2018-01-29T01:44:31.763Z,9.40
2018-01-29T01:46:57.723Z,9.40
2018-01-29T01:49:29.704Z,9.40
2018-01-29T01:51:55.692Z,9.40
2018-01-29T01:54:22.428Z,9.40
2018-01-29T01:56:48.418Z,9.40
2018-01-29T01:59:14.439Z,9.30
2018-01-29T02:01:40.402Z,9.20
2018-01-29T02:04:06.375Z,9.30
2018-01-29T02:06:33.089Z,9.30
2018-01-29T02:08:59.101Z,9.30
2018-01-29T02:11:25.068Z,9.40
2018-01-29T02:13:51.130Z,9.40
2018-01-29T02:16:17.120Z,9.40
2018-01-29T02:18:43.085Z,9.30
2018-01-29T02:21:09.055Z,9.30
2018-01-29T02:23:35.763Z,9.40
2018-01-29T02:26:01.754Z,9.30
2018-01-29T02:28:27.737Z,9.40
2018-01-29T02:30:53.714Z,9.40
2018-01-29T02:33:20.490Z,9.40
2018-01-29T02:35:46.485Z,9.30
2018-01-29T02:38:12.444Z,9.40
2018-01-29T02:40:38.431Z,9.40
2018-01-29T02:43:04.381Z,9.40
2018-01-29T02:45:30.376Z,9.40
2018-01-29T02:47:56.376Z,9.40
2018-01-29T02:50:23.151Z,9.40
2018-01-29T02:52:49.182Z,9.40
2018-01-29T02:55:15.188Z,9.40
2018-01-29T02:57:41.914Z,9.40
2018-01-29T03:00:07.898Z,9.40
2018-01-29T03:02:34.630Z,9.40
2018-01-29T03:05:00.602Z,9.40
2018-01-29T03:07:26.571Z,9.40
2018-01-29T03:09:52.586Z,9.30
2018-01-29T03:12:18.586Z,9.40
2018-01-29T03:14:44.601Z,9.40
2018-01-29T03:17:10.573Z,9.40
2018-01-29T03:19:36.566Z,9.40
2018-01-29T03:22:02.544Z,9.40
2018-01-29T03:24:28.491Z,9.40
2018-01-29T03:26:54.458Z,9.40
2018-01-29T03:29:20.469Z,9.30
2018-01-29T03:31:46.462Z,9.30
2018-01-29T03:34:13.179Z,9.30
2018-01-29T03:36:39.135Z,9.30
2018-01-29T03:39:05.848Z,9.30
2018-01-29T03:41:31.807Z,9.30
2018-01-29T03:43:57.779Z,9.30
2018-01-29T03:46:24.470Z,9.30
2018-01-29T03:48:50.490Z,9.30
2018-01-29T03:51:16.465Z,9.30
2018-01-29T03:53:42.450Z,9.30
2018-01-29T03:56:08.412Z,9.30
2018-01-29T03:58:34.399Z,9.20
2018-01-29T04:01:00.364Z,9.20
2018-01-29T04:03:26.319Z,9.30
2018-01-29T04:05:52.295Z,9.30
2018-01-29T04:08:18.323Z,9.30
2018-01-29T04:10:44.328Z,9.30
2018-01-29T04:13:10.315Z,9.40
2018-01-29T04:15:37.035Z,9.40
2018-01-29T04:18:02.991Z,9.40
2018-01-29T04:20:29.003Z,9.40
2018-01-29T04:22:54.958Z,9.40
2018-01-29T04:25:20.931Z,9.40
2018-01-29T04:27:46.919Z,9.30
2018-01-29T04:30:12.922Z,9.40
2018-01-29T04:32:38.897Z,9.40
2018-01-29T04:35:04.859Z,9.40
2018-01-29T04:37:31.567Z,9.40
2018-01-29T04:39:57.555Z,9.40
2018-01-29T04:42:31.239Z,9.40
2018-01-29T04:44:58.715Z,9.40
2018-01-29T04:47:24.696Z,9.40
2018-01-29T04:49:50.734Z,9.40
2018-01-29T04:52:16.779Z,9.40
2018-01-29T04:54:42.759Z,9.40
2018-01-29T04:57:08.834Z,9.40
2018-01-29T04:59:34.792Z,9.40
2018-01-29T05:02:00.823Z,9.40
2018-01-29T05:04:26.819Z,9.40
2018-01-29T05:06:53.563Z,9.40
2018-01-29T05:09:19.587Z,9.30
2018-01-29T05:11:45.587Z,9.40
2018-01-29T05:14:11.562Z,9.40
2018-01-29T05:16:39.031Z,9.40
2018-01-29T05:19:05.731Z,9.50
2018-01-29T05:21:31.691Z,9.50
2018-01-29T05:23:57.715Z,9.50
2018-01-29T05:26:23.791Z,9.40
2018-01-29T05:28:49.812Z,9.50
2018-01-29T05:31:15.782Z,9.40
2018-01-29T05:33:42.479Z,9.40
2018-01-29T05:39:16.094Z,9.40
2018-01-29T05:41:42.810Z,9.40
2018-01-29T05:44:08.783Z,9.40
2018-01-29T05:46:34.776Z,9.40
2018-01-29T05:49:00.799Z,9.50
2018-01-29T05:51:26.768Z,9.50
2018-01-29T05:53:53.716Z,9.40
2018-01-29T05:56:19.779Z,9.40
2018-01-29T05:58:45.783Z,9.50
2018-01-29T06:01:11.759Z,9.40
2018-01-29T06:03:37.745Z,9.50
2018-01-29T06:06:03.724Z,9.50
2018-01-29T06:08:29.723Z,9.50
2018-01-29T06:10:55.751Z,9.40
2018-01-29T06:13:21.785Z,9.40
2018-01-29T06:15:47.769Z,9.40
2018-01-29T06:18:13.727Z,9.50
2018-01-29T06:20:39.689Z,9.40
2018-01-29T06:23:05.651Z,9.50
2018-01-29T06:25:31.639Z,9.50
2018-01-29T06:27:57.628Z,9.40
2018-01-29T06:30:23.647Z,9.40
2018-01-29T06:32:49.709Z,9.60
2018-01-29T06:35:15.796Z,9.60
2018-01-29T06:37:41.808Z,9.60
2018-01-29T06:40:08.519Z,9.60
2018-01-29T06:42:34.477Z,9.60
2018-01-29T06:45:01.951Z,9.80
2018-01-29T06:47:27.960Z,9.80
2018-01-29T06:49:54.089Z,9.70
2018-01-29T06:52:20.086Z,9.70
2018-01-29T06:54:46.052Z,9.70
2018-01-29T06:57:12.031Z,9.70
2018-01-29T06:59:38.756Z,9.70
2018-01-29T07:02:04.717Z,9.70
2018-01-29T07:04:31.451Z,9.60
2018-01-29T07:06:57.420Z,9.60
2018-01-29T07:09:23.440Z,9.70
2018-01-29T07:11:50.195Z,9.80
2018-01-29T07:14:16.177Z,9.70
2018-01-29T07:16:42.143Z,9.80
2018-01-29T07:19:08.891Z,9.90
2018-01-29T07:21:35.595Z,9.90
2018-01-29T07:24:01.551Z,9.80
2018-01-29T07:26:27.539Z,9.90
2018-01-29T07:28:54.248Z,10.00
2018-01-29T07:31:20.254Z,10.00
2018-01-29T07:33:46.245Z,10.10
2018-01-29T07:36:12.959Z,10.00
2018-01-29T07:38:38.934Z,10.00
2018-01-29T07:41:04.911Z,10.10
2018-01-29T07:43:30.877Z,10.10
2018-01-29T07:45:56.853Z,10.10
2018-01-29T07:48:23.625Z,10.10
2018-01-29T07:50:49.624Z,10.10
2018-01-29T07:53:15.589Z,10.20
2018-01-29T07:55:41.555Z,10.20
2018-01-29T07:58:07.508Z,10.30
2018-01-29T08:00:33.492Z,10.30
2018-01-29T08:02:59.446Z,10.30
2018-01-29T08:05:25.512Z,10.40
2018-01-29T08:07:51.510Z,10.40
2018-01-29T08:10:17.573Z,10.30
2018-01-29T08:12:43.553Z,10.30
2018-01-29T08:15:10.396Z,10.50
2018-01-29T08:17:37.171Z,10.50
2018-01-29T08:20:03.888Z,10.50
2018-01-29T08:22:29.943Z,10.50
2018-01-29T08:24:56.022Z,10.40
2018-01-29T08:27:22.027Z,10.50
2018-01-29T08:29:48.815Z,10.50
2018-01-29T08:32:14.777Z,10.50
2018-01-29T08:34:40.756Z,10.60
2018-01-29T08:37:07.479Z,10.70
2018-01-29T08:39:33.452Z,10.70
2018-01-29T08:42:00.175Z,10.70
2018-01-29T08:44:26.215Z,10.70
2018-01-29T08:46:52.279Z,10.70
2018-01-29T08:49:18.267Z,10.70
2018-01-29T08:51:44.244Z,10.70
2018-01-29T08:54:10.984Z,10.80
2018-01-29T08:56:36.959Z,10.80
2018-01-29T08:59:02.917Z,10.80
2018-01-29T09:01:28.888Z,10.90
2018-01-29T09:03:55.627Z,11.00
2018-01-29T09:06:21.628Z,11.00
2018-01-29T09:08:47.627Z,11.10
2018-01-29T09:11:14.372Z,11.20
2018-01-29T09:13:41.087Z,11.20
2018-01-29T09:16:07.060Z,11.10
2018-01-29T09:18:33.762Z,11.30
2018-01-29T09:20:59.739Z,11.20
2018-01-29T09:23:25.720Z,11.20
2018-01-29T09:25:51.810Z,11.30
2018-01-29T09:28:17.825Z,11.30
2018-01-29T09:30:43.804Z,11.30
2018-01-29T09:33:10.529Z,11.60
2018-01-29T09:35:36.541Z,11.60
2018-01-29T09:38:02.514Z,11.70
2018-01-29T09:40:29.247Z,11.80
2018-01-29T09:42:55.211Z,11.70
2018-01-29T09:45:21.951Z,11.80
2018-01-29T09:47:47.963Z,11.70
2018-01-29T09:50:13.976Z,11.70
2018-01-29T09:52:39.952Z,11.70
2018-01-29T09:55:06.684Z,11.80
2018-01-29T09:57:32.632Z,11.70
2018-01-29T09:59:58.595Z,11.70
2018-01-29T10:02:25.304Z,11.80
2018-01-29T10:04:51.308Z,11.80
2018-01-29T10:07:17.305Z,11.90
2018-01-29T10:09:44.015Z,12.00
2018-01-29T10:12:10.031Z,12.00
2018-01-29T10:14:35.991Z,12.00
2018-01-29T10:17:01.955Z,12.10
2018-01-29T10:19:27.908Z,12.10
2018-01-29T10:21:54.619Z,12.10
2018-01-29T10:24:20.589Z,12.00
2018-01-29T10:26:47.299Z,12.00
2018-01-29T10:29:13.255Z,12.00
2018-01-29T10:31:39.237Z,12.00
2018-01-29T10:34:05.232Z,12.10
2018-01-29T10:36:31.195Z,12.20
2018-01-29T10:38:57.896Z,12.20
2018-01-29T10:41:23.891Z,12.20
2018-01-29T10:43:49.928Z,12.20
2018-01-29T10:46:15.910Z,12.20
2018-01-29T10:48:41.867Z,12.20
2018-01-29T10:51:07.856Z,12.20
2018-01-29T10:53:33.803Z,12.30
2018-01-29T10:55:59.806Z,12.30
2018-01-29T10:58:25.767Z,12.30
2018-01-29T11:00:57.919Z,12.40
2018-01-29T11:03:23.907Z,12.40
2018-01-29T11:05:49.888Z,12.40
2018-01-29T11:08:15.843Z,12.50
2018-01-29T11:10:41.819Z,12.60
2018-01-29T11:13:08.559Z,12.60
2018-01-29T11:15:34.498Z,12.60
2018-01-29T11:18:00.460Z,12.70
2018-01-29T11:20:27.175Z,12.80
2018-01-29T11:22:53.156Z,12.70
2018-01-29T11:25:19.280Z,12.90
2018-01-29T11:27:45.255Z,12.90
2018-01-29T11:30:11.228Z,12.80
2018-01-29T11:32:37.203Z,12.80
2018-01-29T11:35:03.900Z,12.50
2018-01-29T11:37:29.871Z,12.50
2018-01-29T11:39:55.845Z,12.50
2018-01-29T11:42:21.942Z,12.40
2018-01-29T11:44:47.966Z,12.60
2018-01-29T11:47:13.931Z,12.50
2018-01-29T11:49:40.655Z,12.50
2018-01-29T11:52:06.703Z,12.60
2018-01-29T11:54:32.689Z,12.50
2018-01-29T11:56:58.665Z,12.50
2018-01-29T11:59:24.639Z,12.60
2018-01-29T12:01:50.640Z,12.50
2018-01-29T12:04:16.607Z,12.50
2018-01-29T12:06:42.584Z,12.60
2018-01-29T12:09:08.543Z,12.60
2018-01-29T12:11:34.527Z,12.60
2018-01-29T12:14:00.490Z,12.60
2018-01-29T12:16:26.473Z,12.60
2018-01-29T12:18:53.243Z,12.70
2018-01-29T12:21:19.235Z,12.60
2018-01-29T12:23:45.207Z,12.70
2018-01-29T12:26:11.239Z,12.70
2018-01-29T12:28:37.945Z,12.70
2018-01-29T12:31:03.927Z,12.70
2018-01-29T12:33:30.680Z,12.60
2018-01-29T12:35:57.495Z,12.50
2018-01-29T12:38:23.523Z,12.50
2018-01-29T12:40:49.691Z,12.40
2018-01-29T12:43:16.395Z,12.40
2018-01-29T12:45:42.363Z,12.40
2018-01-29T12:48:08.335Z,12.50
2018-01-29T12:50:34.339Z,12.40
2018-01-29T12:53:00.315Z,12.50
2018-01-29T12:55:27.031Z,12.40
2018-01-29T12:57:52.995Z,12.40
2018-01-29T13:00:19.055Z,12.30
2018-01-29T13:02:45.091Z,12.40
2018-01-29T13:05:11.066Z,12.40
2018-01-29T13:07:37.032Z,12.30
2018-01-29T13:10:03.015Z,12.30
2018-01-29T13:12:29.026Z,12.20
2018-01-29T13:14:55.766Z,12.20
2018-01-29T13:17:21.795Z,12.20
2018-01-29T13:19:47.905Z,12.30
2018-01-29T13:22:13.928Z,12.30
2018-01-29T13:24:39.906Z,12.30
2018-01-29T13:27:05.904Z,12.30
2018-01-29T13:29:31.879Z,12.30
2018-01-29T13:31:57.839Z,12.40
2018-01-29T13:34:23.827Z,12.30
2018-01-29T13:36:50.162Z,12.30
2018-01-29T13:39:16.236Z,12.30
2018-01-29T13:41:42.959Z,12.30
2018-01-29T13:44:08.938Z,12.30
2018-01-29T13:46:35.648Z,12.10
2018-01-29T13:49:01.887Z,12.10
2018-01-29T13:51:27.859Z,12.00
2018-01-29T13:53:54.575Z,11.90
2018-01-29T13:56:20.566Z,11.90
2018-01-29T13:58:46.636Z,11.90
2018-01-29T14:01:12.634Z,11.90
2018-01-29T14:03:38.611Z,11.90
2018-01-29T14:06:04.615Z,11.90
2018-01-29T14:08:30.583Z,11.90
2018-01-29T14:10:56.600Z,11.90
2018-01-29T14:13:22.570Z,12.10
2018-01-29T14:15:55.717Z,12.20
2018-01-29T14:18:21.709Z,12.30
2018-01-29T14:20:47.735Z,12.40
2018-01-29T14:23:13.723Z,12.40
2018-01-29T14:25:39.701Z,12.40
2018-01-29T14:28:05.719Z,12.40
2018-01-29T14:30:31.702Z,12.40
2018-01-29T14:32:57.711Z,12.40
2018-01-29T14:35:23.748Z,12.30
2018-01-29T14:37:49.780Z,12.30
2018-01-29T14:40:15.792Z,12.30
2018-01-29T14:42:41.828Z,12.30
2018-01-29T14:45:07.799Z,12.30
2018-01-29T14:47:33.771Z,12.20
2018-01-29T14:50:00.517Z,12.10
2018-01-29T14:52:27.256Z,12.10
2018-01-29T14:54:53.293Z,12.10
2018-01-29T14:57:19.390Z,12.10
2018-01-29T14:59:45.416Z,12.10
2018-01-29T15:02:11.443Z,12.10
2018-01-29T15:04:37.393Z,12.00
2018-01-29T15:07:03.368Z,11.90
2018-01-29T15:09:29.333Z,12.00
2018-01-29T15:11:56.047Z,11.80
2018-01-29T15:14:22.063Z,11.90
2018-01-29T15:16:48.059Z,11.80
2018-01-29T15:19:14.816Z,11.70
2018-01-29T15:21:41.528Z,11.60
2018-01-29T15:24:07.495Z,11.60
2018-01-29T15:26:34.219Z,11.50
2018-01-29T15:29:00.164Z,11.50
2018-01-29T15:31:26.149Z,11.40
2018-01-29T15:33:52.333Z,11.50
2018-01-29T15:36:18.362Z,11.40
2018-01-29T15:38:44.349Z,11.40
2018-01-29T15:41:10.313Z,11.40
2018-01-29T15:43:36.283Z,11.40
2018-01-29T15:46:02.304Z,11.40
2018-01-29T15:48:28.323Z,11.40
2018-01-29T15:50:54.389Z,11.30
2018-01-29T15:53:20.395Z,11.30
2018-01-29T15:55:46.474Z,11.30
2018-01-29T15:58:13.209Z,11.30
2018-01-29T16:00:39.187Z,11.30
2018-01-29T16:03:05.193Z,11.30
2018-01-29T16:05:31.145Z,11.20
2018-01-29T16:07:57.851Z,11.30
2018-01-29T16:10:23.953Z,11.30
2018-01-29T16:12:49.983Z,11.30
2018-01-29T16:15:16.001Z,11.30
2018-01-29T16:17:42.768Z,11.30
2018-01-29T16:20:08.819Z,11.30
2018-01-29T16:22:34.803Z,11.20
2018-01-29T16:25:00.832Z,11.20
2018-01-29T16:27:26.887Z,11.20
2018-01-29T16:29:52.881Z,11.20
2018-01-29T16:32:18.987Z,11.20
2018-01-29T16:34:45.012Z,11.10
2018-01-29T16:37:11.763Z,11.20
2018-01-29T16:39:38.495Z,11.20
2018-01-29T16:42:04.469Z,11.10
2018-01-29T16:44:30.463Z,11.10
2018-01-29T16:46:56.416Z,11.10
2018-01-29T16:49:23.157Z,11.10
2018-01-29T16:51:49.156Z,11.10
2018-01-29T16:54:15.179Z,11.10
2018-01-29T16:56:41.135Z,11.00
2018-01-29T16:59:07.131Z,11.00
2018-01-29T17:01:33.839Z,11.10
2018-01-29T17:03:59.873Z,11.10
2018-01-29T17:06:25.844Z,11.10
2018-01-29T17:08:52.565Z,11.10
2018-01-29T17:11:18.591Z,11.10
2018-01-29T17:13:44.578Z,11.10
2018-01-29T17:16:10.571Z,11.20
2018-01-29T17:18:36.555Z,11.20
2018-01-29T17:21:02.583Z,11.10
2018-01-29T17:23:29.283Z,11.10
2018-01-29T17:25:55.260Z,11.10
2018-01-29T17:28:21.983Z,11.00
2018-01-29T17:30:48.093Z,11.00
2018-01-29T17:33:14.063Z,11.00
2018-01-29T17:35:40.043Z,11.10
2018-01-29T17:38:06.016Z,11.10
2018-01-29T17:40:32.047Z,11.10
2018-01-29T17:42:58.056Z,11.10
2018-01-29T17:45:24.075Z,11.10
2018-01-29T17:47:50.899Z,11.00
2018-01-29T17:50:16.953Z,11.00
2018-01-29T17:52:42.958Z,11.10
2018-01-29T17:55:08.983Z,11.00
2018-01-29T17:57:35.000Z,11.00
2018-01-29T18:00:00.991Z,11.00
2018-01-29T18:02:27.712Z,11.00
2018-01-29T18:04:53.695Z,10.90
2018-01-29T18:07:20.469Z,10.90
2018-01-29T18:09:46.594Z,10.90
2018-01-29T18:12:12.609Z,11.00
2018-01-29T18:14:38.587Z,10.90
2018-01-29T18:17:05.319Z,10.90
2018-01-29T18:19:32.031Z,10.90
2018-01-29T18:21:58.027Z,10.90
2018-01-29T18:24:24.007Z,10.90
2018-01-29T18:26:50.056Z,10.90
2018-01-29T18:29:16.101Z,11.00
2018-01-29T18:31:42.910Z,10.90
2018-01-29T18:34:08.863Z,10.90
2018-01-29T18:36:34.836Z,10.90
2018-01-29T18:39:01.547Z,10.80
2018-01-29T18:41:27.519Z,10.90
2018-01-29T18:43:54.285Z,11.00
2018-01-29T18:46:20.298Z,11.00
2018-01-29T18:48:46.559Z,11.00
2018-01-29T18:51:12.519Z,11.00
2018-01-29T18:53:38.556Z,11.00
2018-01-29T18:56:05.290Z,10.90
2018-01-29T18:58:31.251Z,10.90
2018-01-29T19:00:57.231Z,10.90
2018-01-29T19:03:23.271Z,10.90
2018-01-29T19:05:49.271Z,10.80
2018-01-29T19:08:16.023Z,10.90
2018-01-29T19:10:42.757Z,10.90
2018-01-29T19:13:08.734Z,10.90
2018-01-29T19:15:34.690Z,10.90
2018-01-29T19:18:00.663Z,10.90
2018-01-29T19:20:26.702Z,10.90
2018-01-29T19:22:52.683Z,10.90
2018-01-29T19:25:18.671Z,10.90
2018-01-29T19:27:44.637Z,10.80
2018-01-29T19:30:10.671Z,10.90
2018-01-29T19:32:36.694Z,10.90
2018-01-29T19:35:02.639Z,10.80
2018-01-29T19:37:28.743Z,10.70
2018-01-29T19:39:55.447Z,10.60
2018-01-29T19:42:21.449Z,10.60
2018-01-29T19:44:48.166Z,10.60
2018-01-29T19:47:14.163Z,10.70
2018-01-29T19:49:40.128Z,10.60
2018-01-29T19:52:06.118Z,10.60
2018-01-29T19:54:32.102Z,10.60
2018-01-29T19:56:58.099Z,10.60
2018-01-29T19:59:24.119Z,10.50
2018-01-29T20:01:50.877Z,10.50
2018-01-29T20:04:16.957Z,10.50
2018-01-29T20:06:42.947Z,10.40
2018-01-29T20:09:09.651Z,10.40
2018-01-29T20:11:35.623Z,10.30
2018-01-29T20:14:01.642Z,10.30
2018-01-29T20:16:27.690Z,10.30
2018-01-29T20:18:53.672Z,10.40
2018-01-29T20:21:19.632Z,10.40
2018-01-29T20:23:45.817Z,10.30
2018-01-29T20:26:12.510Z,10.30
2018-01-29T20:28:38.483Z,10.30
2018-01-29T20:31:04.460Z,10.30
2018-01-29T20:33:30.460Z,10.20
2018-01-29T20:35:56.512Z,10.30
2018-01-29T20:38:24.012Z,10.30
2018-01-29T20:40:49.975Z,10.30
2018-01-29T20:43:15.958Z,10.30
2018-01-29T20:45:42.677Z,10.40
2018-01-29T20:48:08.665Z,10.40
2018-01-29T20:50:34.627Z,10.40
2018-01-29T20:53:00.600Z,10.40
2018-01-29T20:55:26.599Z,10.40
2018-01-29T20:57:52.651Z,10.40
2018-01-29T21:00:19.448Z,10.40
2018-01-29T21:02:46.178Z,10.40
2018-01-29T21:05:12.146Z,10.40
2018-01-29T21:07:38.115Z,10.40
2018-01-29T21:10:04.092Z,10.40
2018-01-29T21:12:30.791Z,10.40
2018-01-29T21:14:56.798Z,10.40
2018-01-29T21:17:22.831Z,10.40
2018-01-29T21:19:49.539Z,10.40
2018-01-29T21:22:15.531Z,10.30
2018-01-29T21:24:41.504Z,10.40
2018-01-29T21:27:07.482Z,10.40
2018-01-29T21:29:34.213Z,10.40
2018-01-29T21:32:01.027Z,10.40
2018-01-29T21:34:27.047Z,10.40
2018-01-29T21:36:53.137Z,10.40
2018-01-29T21:39:19.855Z,10.40
2018-01-29T21:41:45.831Z,10.40
2018-01-29T21:44:11.784Z,10.30
2018-01-29T21:46:38.519Z,10.40
2018-01-29T21:49:05.976Z,10.40
2018-01-29T21:51:31.963Z,10.40
2018-01-29T21:53:58.011Z,10.40
2018-01-29T21:56:24.032Z,10.40
2018-01-29T21:58:49.987Z,10.30
2018-01-29T22:01:15.995Z,10.30
2018-01-29T22:03:42.686Z,10.30
2018-01-29T22:06:08.656Z,10.40
2018-01-29T22:08:34.608Z,10.40
2018-01-29T22:11:01.355Z,10.30
2018-01-29T22:13:28.109Z,10.30
2018-01-29T22:15:54.853Z,10.20
2018-01-29T22:18:20.814Z,10.30
2018-01-29T22:20:46.791Z,10.20
2018-01-29T22:23:12.754Z,10.10
2018-01-29T22:25:38.720Z,10.20
2018-01-29T22:28:04.708Z,10.20
2018-01-29T22:30:30.663Z,10.20
2018-01-29T22:32:56.757Z,10.20
2018-01-29T22:35:22.783Z,10.20
2018-01-29T22:37:48.750Z,10.10
2018-01-29T22:40:14.703Z,10.10
2018-01-29T22:42:42.183Z,10.00
2018-01-29T22:45:08.143Z,10.00
2018-01-29T22:47:34.123Z,10.00
2018-01-29T22:50:00.163Z,10.00
2018-01-29T22:52:26.155Z,9.90
2018-01-29T22:54:52.111Z,9.90
2018-01-29T22:57:18.082Z,9.80
2018-01-29T22:59:44.065Z,9.80
2018-01-29T23:02:10.020Z,9.60
2018-01-29T23:04:35.981Z,9.50
2018-01-29T23:07:02.027Z,9.60
2018-01-29T23:09:28.020Z,9.40
2018-01-29T23:11:54.107Z,9.30
2018-01-29T23:14:20.068Z,9.20
2018-01-29T23:16:46.024Z,9.20
2018-01-29T23:19:12.003Z,9.20
2018-01-29T23:21:37.967Z,9.20
2018-01-29T23:24:04.682Z,9.10
2018-01-29T23:26:30.739Z,9.10
2018-01-29T23:28:56.780Z,9.00
2018-01-29T23:31:23.531Z,9.00
2018-01-29T23:33:49.508Z,9.10
2018-01-29T23:36:15.465Z,8.90
2018-01-29T23:38:41.447Z,8.80
2018-01-29T23:41:08.207Z,8.70
2018-01-29T23:43:34.930Z,8.60
2018-01-29T23:46:00.883Z,8.60
2018-01-29T23:48:26.931Z,8.60
2018-01-29T23:50:52.905Z,8.70
2018-01-29T23:53:18.875Z,8.70
2018-01-29T23:55:44.839Z,8.80
2018-01-29T23:58:11.560Z,8.80
